sensor_id;sensor_type;location;lat;lon;timestamp;pressure;altitude;pressure_sealevel;temperature;humidity
50550;BME280;36505;52.512;13.460;2023-12-14T00:01:15;100071.63;;;5.35;100.00
50550;BME280;36505;52.512;13.460;2023-12-14T00:03:41;100074.34;;;5.35;100.00
50550;BME280;36505;52.512;13.460;2023-12-14T00:06:13;100078.09;;;5.34;100.00
50550;BME280;36505;52.512;13.460;2023-12-14T00:08:39;100090.84;;;5.34;100.00
50550;BME280;36505;52.512;13.460;2023-12-14T00:11:09;100098.63;;;5.30;100.00
50550;BME280;36505;52.512;13.460;2023-12-14T00:13:35;100095.50;;;5.27;100.00
50550;BME280;36505;52.512;13.460;2023-12-14T00:16:01;100100.56;;;5.23;100.00
50550;BME280;36505;52.512;13.460;2023-12-14T00:18:27;100099.13;;;5.21;100.00
50550;BME280;36505;52.512;13.460;2023-12-14T00:20:52;100111.28;;;5.18;100.00
50550;BME280;36505;52.512;13.460;2023-12-14T00:23:19;100110.22;;;5.19;100.00
50550;BME280;36505;52.512;13.460;2023-12-14T00:25:45;100114.84;;;5.19;100.00
50550;BME280;36505;52.512;13.460;2023-12-14T00:28:10;100122.97;;;5.19;100.00
50550;BME280;36505;52.512;13.460;2023-12-14T00:30:35;100122.16;;;5.18;100.00
50550;BME280;36505;52.512;13.460;2023-12-14T00:33:01;100133.22;;;5.16;100.00
50550;BME280;36505;52.512;13.460;2023-12-14T00:35:26;100129.06;;;5.14;100.00
50550;BME280;36505;52.512;13.460;2023-12-14T00:37:52;100141.78;;;5.13;100.00
50550;BME280;36505;52.512;13.460;2023-12-14T00:40:17;100146.63;;;5.11;100.00
50550;BME280;36505;52.512;13.460;2023-12-14T00:42:42;100150.41;;;5.10;100.00
50550;BME280;36505;52.512;13.460;2023-12-14T00:45:08;100155.22;;;5.08;100.00
50550;BME280;36505;52.512;13.460;2023-12-14T00:47:33;100155.63;;;5.05;100.00
50550;BME280;36505;52.512;13.460;2023-12-14T00:49:59;100154.44;;;5.01;100.00
50550;BME280;36505;52.512;13.460;2023-12-14T00:52:24;100163.00;;;4.98;100.00
50550;BME280;36505;52.512;13.460;2023-12-14T00:54:50;100160.75;;;4.95;100.00
50550;BME280;36505;52.512;13.460;2023-12-14T00:57:15;100162.84;;;4.93;100.00
50550;BME280;36505;52.512;13.460;2023-12-14T00:59:41;100166.63;;;4.92;100.00
50550;BME280;36505;52.512;13.460;2023-12-14T01:02:06;100167.44;;;4.93;100.00
50550;BME280;36505;52.512;13.460;2023-12-14T01:04:32;100181.25;;;4.91;100.00
50550;BME280;36505;52.512;13.460;2023-12-14T01:06:57;100179.81;;;4.89;100.00
50550;BME280;36505;52.512;13.460;2023-12-14T01:09:23;100182.53;;;4.89;100.00
50550;BME280;36505;52.512;13.460;2023-12-14T01:11:48;100190.44;;;4.90;100.00
50550;BME280;36505;52.512;13.460;2023-12-14T01:14:13;100185.84;;;4.91;100.00
50550;BME280;36505;52.512;13.460;2023-12-14T01:16:39;100189.41;;;4.91;100.00
50550;BME280;36505;52.512;13.460;2023-12-14T01:19:04;100195.41;;;4.93;100.00
50550;BME280;36505;52.512;13.460;2023-12-14T01:21:31;100207.09;;;4.94;100.00
50550;BME280;36505;52.512;13.460;2023-12-14T01:23:57;100204.38;;;4.94;100.00
50550;BME280;36505;52.512;13.460;2023-12-14T01:26:22;100212.31;;;4.95;100.00
50550;BME280;36505;52.512;13.460;2023-12-14T01:28:47;100214.19;;;4.95;100.00
50550;BME280;36505;52.512;13.460;2023-12-14T01:31:13;100215.84;;;4.96;100.00
50550;BME280;36505;52.512;13.460;2023-12-14T01:33:38;100214.19;;;4.95;100.00
50550;BME280;36505;52.512;13.460;2023-12-14T01:36:03;100220.44;;;4.95;100.00
50550;BME280;36505;52.512;13.460;2023-12-14T01:38:29;100221.72;;;4.93;100.00
50550;BME280;36505;52.512;13.460;2023-12-14T01:40:54;100226.91;;;4.94;100.00
50550;BME280;36505;52.512;13.460;2023-12-14T01:43:21;100234.00;;;4.95;100.00
50550;BME280;36505;52.512;13.460;2023-12-14T01:45:47;100237.56;;;4.96;100.00
50550;BME280;36505;52.512;13.460;2023-12-14T01:48:12;100237.56;;;4.96;100.00
50550;BME280;36505;52.512;13.460;2023-12-14T01:50:37;100230.47;;;4.95;100.00
50550;BME280;36505;52.512;13.460;2023-12-14T01:53:03;100240.06;;;4.97;100.00
50550;BME280;36505;52.512;13.460;2023-12-14T01:55:28;100244.88;;;4.95;100.00
50550;BME280;36505;52.512;13.460;2023-12-14T01:57:54;100245.91;;;4.94;100.00
50550;BME280;36505;52.512;13.460;2023-12-14T02:00:42;100250.13;;;4.90;100.00
50550;BME280;36505;52.512;13.460;2023-12-14T02:03:09;100253.06;;;4.89;100.00
50550;BME280;36505;52.512;13.460;2023-12-14T02:05:34;100250.56;;;4.87;100.00
50550;BME280;36505;52.512;13.460;2023-12-14T02:08:00;100259.72;;;4.86;100.00
50550;BME280;36505;52.512;13.460;2023-12-14T02:10:25;100259.16;;;4.84;100.00
50550;BME280;36505;52.512;13.460;2023-12-14T02:12:51;100261.84;;;4.84;100.00
50550;BME280;36505;52.512;13.460;2023-12-14T02:15:16;100263.94;;;4.82;100.00
50550;BME280;36505;52.512;13.460;2023-12-14T02:17:41;100265.84;;;4.82;100.00
50550;BME280;36505;52.512;13.460;2023-12-14T02:20:07;100262.28;;;4.81;100.00
50550;BME280;36505;52.512;13.460;2023-12-14T02:22:48;100267.91;;;4.80;100.00
50550;BME280;36505;52.512;13.460;2023-12-14T02:25:15;100265.41;;;4.78;100.00
50550;BME280;36505;52.512;13.460;2023-12-14T02:27:41;100262.72;;;4.78;100.00
50550;BME280;36505;52.512;13.460;2023-12-14T02:30:06;100269.78;;;4.79;100.00
50550;BME280;36505;52.512;13.460;2023-12-14T02:32:32;100267.09;;;4.79;100.00
50550;BME280;36505;52.512;13.460;2023-12-14T02:34:57;100268.97;;;4.78;100.00
50550;BME280;36505;52.512;13.460;2023-12-14T02:37:23;100276.88;;;4.80;100.00
50550;BME280;36505;52.512;13.460;2023-12-14T02:39:48;100273.56;;;4.78;100.00
50550;BME280;36505;52.512;13.460;2023-12-14T02:42:13;100283.81;;;4.76;100.00
50550;BME280;36505;52.512;13.460;2023-12-14T02:44:39;100277.75;;;4.74;100.00
50550;BME280;36505;52.512;13.460;2023-12-14T02:47:04;100285.91;;;4.74;100.00
50550;BME280;36505;52.512;13.460;2023-12-14T02:49:30;100282.56;;;4.72;100.00
50550;BME280;36505;52.512;13.460;2023-12-14T02:51:55;100284.44;;;4.71;100.00
50550;BME280;36505;52.512;13.460;2023-12-14T02:54:20;100293.66;;;4.70;100.00
50550;BME280;36505;52.512;13.460;2023-12-14T02:56:46;100288.88;;;4.66;100.00
50550;BME280;36505;52.512;13.460;2023-12-14T02:59:11;100290.34;;;4.62;100.00
50550;BME280;36505;52.512;13.460;2023-12-14T03:01:36;100290.19;;;4.57;100.00
50550;BME280;36505;52.512;13.460;2023-12-14T03:04:02;100298.75;;;4.54;100.00
50550;BME280;36505;52.512;13.460;2023-12-14T03:06:27;100298.13;;;4.52;100.00
50550;BME280;36505;52.512;13.460;2023-12-14T03:08:52;100303.78;;;4.50;100.00
50550;BME280;36505;52.512;13.460;2023-12-14T03:11:22;100302.94;;;4.50;100.00
50550;BME280;36505;52.512;13.460;2023-12-14T03:13:50;100306.69;;;4.49;100.00
50550;BME280;36505;52.512;13.460;2023-12-14T03:16:15;100314.00;;;4.48;100.00
50550;BME280;36505;52.512;13.460;2023-12-14T03:18:44;100319.84;;;4.45;100.00
50550;BME280;36505;52.512;13.460;2023-12-14T03:21:09;100326.09;;;4.46;100.00
50550;BME280;36505;52.512;13.460;2023-12-14T03:23:35;100330.47;;;4.47;100.00
50550;BME280;36505;52.512;13.460;2023-12-14T03:26:00;100334.84;;;4.48;100.00
50550;BME280;36505;52.512;13.460;2023-12-14T03:28:26;100329.00;;;4.44;100.00
50550;BME280;36505;52.512;13.460;2023-12-14T03:30:52;100333.19;;;4.47;100.00
50550;BME280;36505;52.512;13.460;2023-12-14T03:33:18;100332.13;;;4.48;100.00
50550;BME280;36505;52.512;13.460;2023-12-14T03:35:43;100342.16;;;4.47;100.00
50550;BME280;36505;52.512;13.460;2023-12-14T03:38:09;100345.69;;;4.48;100.00
50550;BME280;36505;52.512;13.460;2023-12-14T03:40:35;100343.81;;;4.48;100.00
50550;BME280;36505;52.512;13.460;2023-12-14T03:43:01;100341.72;;;4.50;100.00
50550;BME280;36505;52.512;13.460;2023-12-14T03:45:28;100349.88;;;4.50;100.00
50550;BME280;36505;52.512;13.460;2023-12-14T03:47:53;100353.38;;;4.51;100.00
50550;BME280;36505;52.512;13.460;2023-12-14T03:50:19;100358.00;;;4.50;100.00
50550;BME280;36505;52.512;13.460;2023-12-14T03:52:44;100366.94;;;4.51;100.00
50550;BME280;36505;52.512;13.460;2023-12-14T03:55:10;100358.22;;;4.49;100.00
50550;BME280;36505;52.512;13.460;2023-12-14T03:57:35;100368.00;;;4.50;100.00
50550;BME280;36505;52.512;13.460;2023-12-14T04:00:00;100371.75;;;4.49;100.00
50550;BME280;36505;52.512;13.460;2023-12-14T04:02:26;100375.31;;;4.49;100.00
50550;BME280;36505;52.512;13.460;2023-12-14T04:04:52;100381.31;;;4.51;100.00
50550;BME280;36505;52.512;13.460;2023-12-14T04:07:17;100385.91;;;4.51;100.00
50550;BME280;36505;52.512;13.460;2023-12-14T04:09:44;100390.94;;;4.54;100.00
50550;BME280;36505;52.512;13.460;2023-12-14T04:12:09;100392.59;;;4.55;100.00
50550;BME280;36505;52.512;13.460;2023-12-14T04:14:35;100399.69;;;4.56;100.00
50550;BME280;36505;52.512;13.460;2023-12-14T04:17:00;100394.25;;;4.56;100.00
50550;BME280;36505;52.512;13.460;2023-12-14T04:19:25;100399.69;;;4.56;100.00
50550;BME280;36505;52.512;13.460;2023-12-14T04:21:51;100401.34;;;4.57;100.00
50550;BME280;36505;52.512;13.460;2023-12-14T04:24:16;100399.44;;;4.57;100.00
50550;BME280;36505;52.512;13.460;2023-12-14T04:26:42;100393.81;;;4.59;100.00
50550;BME280;36505;52.512;13.460;2023-12-14T04:29:07;100402.59;;;4.61;100.00
50550;BME280;36505;52.512;13.460;2023-12-14T04:31:34;100408.84;;;4.61;100.00
50550;BME280;36505;52.512;13.460;2023-12-14T04:34:00;100413.22;;;4.62;100.00
50550;BME280;36505;52.512;13.460;2023-12-14T04:36:25;100420.09;;;4.65;100.00
50550;BME280;36505;52.512;13.460;2023-12-14T04:38:50;100428.00;;;4.66;100.00
50550;BME280;36505;52.512;13.460;2023-12-14T04:41:16;100422.38;;;4.68;100.00
50550;BME280;36505;52.512;13.460;2023-12-14T04:43:41;100420.28;;;4.70;100.00
50550;BME280;36505;52.512;13.460;2023-12-14T04:46:06;100429.03;;;4.72;100.00
50550;BME280;36505;52.512;13.460;2023-12-14T04:48:32;100427.16;;;4.72;100.00
50550;BME280;36505;52.512;13.460;2023-12-14T04:50:57;100426.94;;;4.74;100.00
50550;BME280;36505;52.512;13.460;2023-12-14T04:53:23;100430.50;;;4.74;100.00
50550;BME280;36505;52.512;13.460;2023-12-14T04:55:48;100434.88;;;4.75;100.00
50550;BME280;36505;52.512;13.460;2023-12-14T04:58:14;100438.63;;;4.74;100.00
50550;BME280;36505;52.512;13.460;2023-12-14T05:00:39;100443.66;;;4.78;100.00
50550;BME280;36505;52.512;13.460;2023-12-14T05:03:05;100446.34;;;4.78;100.00
50550;BME280;36505;52.512;13.460;2023-12-14T05:05:31;100452.81;;;4.76;100.00
50550;BME280;36505;52.512;13.460;2023-12-14T05:07:56;100441.16;;;4.69;100.00
50550;BME280;36505;52.512;13.460;2023-12-14T05:10:21;100457.63;;;4.74;100.00
50550;BME280;36505;52.512;13.460;2023-12-14T05:12:47;100460.97;;;4.76;100.00
50550;BME280;36505;52.512;13.460;2023-12-14T05:15:12;100468.25;;;4.76;100.00
50550;BME280;36505;52.512;13.460;2023-12-14T05:17:37;100473.06;;;4.74;100.00
50550;BME280;36505;52.512;13.460;2023-12-14T05:20:04;100471.38;;;4.73;100.00
50550;BME280;36505;52.512;13.460;2023-12-14T05:22:30;100479.53;;;4.73;100.00
50550;BME280;36505;52.512;13.460;2023-12-14T05:24:56;100488.50;;;4.73;100.00
50550;BME280;36505;52.512;13.460;2023-12-14T05:27:21;100492.88;;;4.74;100.00
50550;BME280;36505;52.512;13.460;2023-12-14T05:29:46;100501.84;;;4.75;100.00
50550;BME280;36505;52.512;13.460;2023-12-14T05:32:12;100496.44;;;4.75;100.00
50550;BME280;36505;52.512;13.460;2023-12-14T05:34:37;100510.81;;;4.75;100.00
50550;BME280;36505;52.512;13.460;2023-12-14T05:37:03;100519.78;;;4.76;100.00
50550;BME280;36505;52.512;13.460;2023-12-14T05:39:29;100520.63;;;4.76;100.00
50550;BME280;36505;52.512;13.460;2023-12-14T05:41:54;100530.22;;;4.79;100.00
50550;BME280;36505;52.512;13.460;2023-12-14T05:44:19;100521.88;;;4.81;100.00
50550;BME280;36505;52.512;13.460;2023-12-14T05:46:45;100532.50;;;4.82;100.00
50550;BME280;36505;52.512;13.460;2023-12-14T05:49:10;100529.59;;;4.84;100.00
50550;BME280;36505;52.512;13.460;2023-12-14T05:51:38;100537.94;;;4.82;100.00
50550;BME280;36505;52.512;13.460;2023-12-14T05:54:04;100535.22;;;4.82;100.00
50550;BME280;36505;52.512;13.460;2023-12-14T05:56:30;100540.44;;;4.84;100.00
50550;BME280;36505;52.512;13.460;2023-12-14T05:58:55;100551.28;;;4.84;100.00
50550;BME280;36505;52.512;13.460;2023-12-14T06:01:23;100551.28;;;4.84;100.00
50550;BME280;36505;52.512;13.460;2023-12-14T06:03:49;100548.59;;;4.84;100.00
50550;BME280;36505;52.512;13.460;2023-12-14T06:06:14;100554.84;;;4.84;100.00
50550;BME280;36505;52.512;13.460;2023-12-14T06:08:40;100565.69;;;4.84;100.00
50550;BME280;36505;52.512;13.460;2023-12-14T06:11:06;100567.78;;;4.82;100.00
50550;BME280;36505;52.512;13.460;2023-12-14T06:13:32;100561.50;;;4.82;100.00
50550;BME280;36505;52.512;13.460;2023-12-14T06:15:58;100563.81;;;4.78;100.00
50550;BME280;36505;52.512;13.460;2023-12-14T06:18:24;100573.63;;;4.79;100.00
50550;BME280;36505;52.512;13.460;2023-12-14T06:20:49;100574.88;;;4.76;100.00
50550;BME280;36505;52.512;13.460;2023-12-14T06:23:15;100580.72;;;4.73;99.96
50550;BME280;36505;52.512;13.460;2023-12-14T06:25:40;100581.97;;;4.71;100.00
50550;BME280;36505;52.512;13.460;2023-12-14T06:28:06;100584.91;;;4.69;100.00
50550;BME280;36505;52.512;13.460;2023-12-14T06:30:31;100590.53;;;4.68;100.00
50550;BME280;36505;52.512;13.460;2023-12-14T06:32:57;100589.91;;;4.66;100.00
50550;BME280;36505;52.512;13.460;2023-12-14T06:35:22;100587.38;;;4.64;100.00
50550;BME280;36505;52.512;13.460;2023-12-14T06:37:47;100580.34;;;4.57;100.00
50550;BME280;36505;52.512;13.460;2023-12-14T06:40:13;100588.66;;;4.62;100.00
50550;BME280;36505;52.512;13.460;2023-12-14T06:42:39;100597.44;;;4.64;100.00
50550;BME280;36505;52.512;13.460;2023-12-14T06:45:05;100597.44;;;4.64;100.00
50550;BME280;36505;52.512;13.460;2023-12-14T06:47:30;100599.50;;;4.62;100.00
50550;BME280;36505;52.512;13.460;2023-12-14T06:49:56;100609.09;;;4.64;100.00
50550;BME280;36505;52.512;13.460;2023-12-14T06:52:24;100604.50;;;4.65;100.00
50550;BME280;36505;52.512;13.460;2023-12-14T06:54:50;100614.09;;;4.67;100.00
50550;BME280;36505;52.512;13.460;2023-12-14T06:57:15;100626.44;;;4.70;100.00
50550;BME280;36505;52.512;13.460;2023-12-14T06:59:40;100628.72;;;4.73;100.00
50550;BME280;36505;52.512;13.460;2023-12-14T07:02:06;100627.66;;;4.74;100.00
50550;BME280;36505;52.512;13.460;2023-12-14T07:04:32;100633.53;;;4.78;100.00
50550;BME280;36505;52.512;13.460;2023-12-14T07:06:57;100639.56;;;4.80;100.00
50550;BME280;36505;52.512;13.460;2023-12-14T07:09:24;100643.31;;;4.78;100.00
50550;BME280;36505;52.512;13.460;2023-12-14T07:11:49;100656.66;;;4.80;100.00
50550;BME280;36505;52.512;13.460;2023-12-14T07:14:15;100652.50;;;4.78;100.00
50550;BME280;36505;52.512;13.460;2023-12-14T07:16:41;100657.09;;;4.77;100.00
50550;BME280;36505;52.512;13.460;2023-12-14T07:19:06;100667.94;;;4.77;100.00
50550;BME280;36505;52.512;13.460;2023-12-14T07:21:32;100664.41;;;4.76;100.00
50550;BME280;36505;52.512;13.460;2023-12-14T07:23:57;100677.97;;;4.76;100.00
50550;BME280;36505;52.512;13.460;2023-12-14T07:26:24;100676.09;;;4.77;100.00
50550;BME280;36505;52.512;13.460;2023-12-14T07:28:49;100684.44;;;4.75;100.00
50550;BME280;36505;52.512;13.460;2023-12-14T07:31:14;100693.41;;;4.76;100.00
50550;BME280;36505;52.512;13.460;2023-12-14T07:33:40;100693.41;;;4.76;100.00
50550;BME280;36505;52.512;13.460;2023-12-14T07:36:05;100709.47;;;4.78;100.00
50550;BME280;36505;52.512;13.460;2023-12-14T07:38:31;100716.78;;;4.77;100.00
50550;BME280;36505;52.512;13.460;2023-12-14T07:40:56;100717.81;;;4.76;100.00
50550;BME280;36505;52.512;13.460;2023-12-14T07:43:22;100722.59;;;4.74;100.00
50550;BME280;36505;52.512;13.460;2023-12-14T07:45:48;100722.59;;;4.74;100.00
50550;BME280;36505;52.512;13.460;2023-12-14T07:48:13;100725.13;;;4.75;100.00
50550;BME280;36505;52.512;13.460;2023-12-14T07:50:39;100720.34;;;4.78;100.00
50550;BME280;36505;52.512;13.460;2023-12-14T07:53:04;100722.81;;;4.79;100.00
50550;BME280;36505;52.512;13.460;2023-12-14T07:55:30;100737.84;;;4.82;100.00
50550;BME280;36505;52.512;13.460;2023-12-14T07:57:56;100730.56;;;4.82;100.00
50550;BME280;36505;52.512;13.460;2023-12-14T08:00:21;100737.03;;;4.81;100.00
50550;BME280;36505;52.512;13.460;2023-12-14T08:02:47;100745.78;;;4.83;100.00
50550;BME280;36505;52.512;13.460;2023-12-14T08:05:12;100744.75;;;4.84;100.00
50550;BME280;36505;52.512;13.460;2023-12-14T08:07:37;100746.41;;;4.85;100.00
50550;BME280;36505;52.512;13.460;2023-12-14T08:10:03;100756.22;;;4.86;100.00
50550;BME280;36505;52.512;13.460;2023-12-14T08:12:28;100757.25;;;4.85;100.00
50550;BME280;36505;52.512;13.460;2023-12-14T08:14:54;100757.25;;;4.85;100.00
50550;BME280;36505;52.512;13.460;2023-12-14T08:17:19;100759.13;;;4.85;100.00
50550;BME280;36505;52.512;13.460;2023-12-14T08:19:46;100761.84;;;4.85;100.00
50550;BME280;36505;52.512;13.460;2023-12-14T08:22:12;100766.47;;;4.84;100.00
50550;BME280;36505;52.512;13.460;2023-12-14T08:24:40;100780.84;;;4.85;100.00
50550;BME280;36505;52.512;13.460;2023-12-14T08:27:05;100771.88;;;4.84;100.00
50550;BME280;36505;52.512;13.460;2023-12-14T08:29:31;100777.31;;;4.84;100.00
50550;BME280;36505;52.512;13.460;2023-12-14T08:31:56;100786.25;;;4.85;100.00
50550;BME280;36505;52.512;13.460;2023-12-14T08:34:24;100797.94;;;4.85;100.00
50550;BME280;36505;52.512;13.460;2023-12-14T08:36:50;100806.09;;;4.85;100.00
50550;BME280;36505;52.512;13.460;2023-12-14T08:39:15;100804.22;;;4.86;100.00
50550;BME280;36505;52.512;13.460;2023-12-14T08:41:41;100813.19;;;4.86;100.00
50550;BME280;36505;52.512;13.460;2023-12-14T08:44:06;100817.38;;;4.89;100.00
50550;BME280;36505;52.512;13.460;2023-12-14T08:46:45;100821.97;;;4.88;100.00
50550;BME280;36505;52.512;13.460;2023-12-14T08:49:12;100825.31;;;4.90;100.00
50550;BME280;36505;52.512;13.460;2023-12-14T08:51:38;100829.72;;;4.91;100.00
50550;BME280;36505;52.512;13.460;2023-12-14T08:54:04;100832.00;;;4.94;100.00
50550;BME280;36505;52.512;13.460;2023-12-14T08:56:30;100837.63;;;4.99;100.00
50550;BME280;36505;52.512;13.460;2023-12-14T08:58:55;100837.03;;;4.97;100.00
50550;BME280;36505;52.512;13.460;2023-12-14T09:01:21;100843.72;;;5.01;100.00
50550;BME280;36505;52.512;13.460;2023-12-14T09:03:47;100850.81;;;5.02;100.00
50550;BME280;36505;52.512;13.460;2023-12-14T09:06:13;100848.72;;;5.04;100.00
50550;BME280;36505;52.512;13.460;2023-12-14T09:08:40;100854.16;;;5.04;100.00
50550;BME280;36505;52.512;13.460;2023-12-14T09:11:05;100855.41;;;5.08;100.00
50550;BME280;36505;52.512;13.460;2023-12-14T09:13:30;100865.88;;;5.11;100.00
50550;BME280;36505;52.512;13.460;2023-12-14T09:15:56;100869.63;;;5.10;99.50
50550;BME280;36505;52.512;13.460;2023-12-14T09:18:21;100871.69;;;5.08;100.00
50550;BME280;36505;52.512;13.460;2023-12-14T09:20:48;100878.81;;;5.09;99.61
50550;BME280;36505;52.512;13.460;2023-12-14T09:23:15;100884.03;;;5.11;100.00
50550;BME280;36505;52.512;13.460;2023-12-14T09:25:41;100887.78;;;5.10;99.71
50550;BME280;36505;52.512;13.460;2023-12-14T09:28:06;100884.22;;;5.09;99.75
50550;BME280;36505;52.512;13.460;2023-12-14T09:30:32;100884.22;;;5.09;99.57
50550;BME280;36505;52.512;13.460;2023-12-14T09:32:58;100887.16;;;5.08;99.56
50550;BME280;36505;52.512;13.460;2023-12-14T09:35:23;100895.72;;;5.11;100.00
50550;BME280;36505;52.512;13.460;2023-12-14T09:37:48;100899.25;;;5.12;100.00
50550;BME280;36505;52.512;13.460;2023-12-14T09:40:15;100898.00;;;5.14;100.00
50550;BME280;36505;52.512;13.460;2023-12-14T09:42:41;100904.72;;;5.19;100.00
50550;BME280;36505;52.512;13.460;2023-12-14T09:45:08;100901.59;;;5.22;100.00
50550;BME280;36505;52.512;13.460;2023-12-14T09:47:35;100919.56;;;5.23;100.00
50550;BME280;36505;52.512;13.460;2023-12-14T09:50:01;100914.75;;;5.25;99.68
50550;BME280;36505;52.512;13.460;2023-12-14T09:52:28;100920.38;;;5.23;99.66
50550;BME280;36505;52.512;13.460;2023-12-14T09:54:54;100917.66;;;5.16;99.39
50550;BME280;36505;52.512;13.460;2023-12-14T09:57:19;100924.34;;;5.21;99.29
50550;BME280;36505;52.512;13.460;2023-12-14T09:59:52;100922.06;;;5.18;99.23
50550;BME280;36505;52.512;13.460;2023-12-14T10:02:18;100920.19;;;5.18;99.78
50550;BME280;36505;52.512;13.460;2023-12-14T10:04:44;100919.34;;;5.18;99.23
50550;BME280;36505;52.512;13.460;2023-12-14T10:07:09;100926.00;;;5.15;98.75
50550;BME280;36505;52.512;13.460;2023-12-14T10:09:36;100920.97;;;5.12;97.88
50550;BME280;36505;52.512;13.460;2023-12-14T10:12:09;100924.53;;;5.12;99.20
50550;BME280;36505;52.512;13.460;2023-12-14T10:14:35;100930.78;;;5.13;98.54
50550;BME280;36505;52.512;13.460;2023-12-14T10:17:20;100933.09;;;5.09;99.03
50550;BME280;36505;52.512;13.460;2023-12-14T10:19:47;100938.50;;;5.09;98.63
50550;BME280;36505;52.512;13.460;2023-12-14T10:22:16;100942.91;;;5.10;98.84
50550;BME280;36505;52.512;13.460;2023-12-14T10:24:47;100939.75;;;5.07;97.85
50550;BME280;36505;52.512;13.460;2023-12-14T10:27:14;100941.88;;;5.11;99.06
50550;BME280;36505;52.512;13.460;2023-12-14T10:29:40;100947.91;;;5.13;99.55
50550;BME280;36505;52.512;13.460;2023-12-14T10:32:07;100950.63;;;5.13;99.37
50550;BME280;36505;52.512;13.460;2023-12-14T10:34:34;100947.72;;;5.15;99.78
50550;BME280;36505;52.512;13.460;2023-12-14T10:37:01;100955.66;;;5.16;99.23
50550;BME280;36505;52.512;13.460;2023-12-14T10:39:28;100961.09;;;5.16;99.51
50550;BME280;36505;52.512;13.460;2023-12-14T10:41:57;100958.38;;;5.16;98.66
50550;BME280;36505;52.512;13.460;2023-12-14T10:44:27;100965.50;;;5.18;98.76
50550;BME280;36505;52.512;13.460;2023-12-14T10:46:55;100975.31;;;5.19;98.88
50550;BME280;36505;52.512;13.460;2023-12-14T10:49:25;100975.50;;;5.17;98.61
50550;BME280;36505;52.512;13.460;2023-12-14T10:51:52;100977.38;;;5.16;98.61
50550;BME280;36505;52.512;13.460;2023-12-14T10:54:23;100985.72;;;5.15;98.69
50550;BME280;36505;52.512;13.460;2023-12-14T10:56:49;100979.44;;;5.14;98.72
50550;BME280;36505;52.512;13.460;2023-12-14T10:59:15;100982.59;;;5.11;98.01
50550;BME280;36505;52.512;13.460;2023-12-14T11:01:42;100990.94;;;5.10;97.57
50550;BME280;36505;52.512;13.460;2023-12-14T11:04:07;100989.25;;;5.09;98.56
50550;BME280;36505;52.512;13.460;2023-12-14T11:06:39;100986.53;;;5.09;98.33
50550;BME280;36505;52.512;13.460;2023-12-14T11:09:06;100983.38;;;5.05;99.17
50550;BME280;36505;52.512;13.460;2023-12-14T11:14:23;100989.91;;;5.11;100.00
50550;BME280;36505;52.512;13.460;2023-12-14T11:16:49;100986.94;;;5.12;100.00
50550;BME280;36505;52.512;13.460;2023-12-14T11:19:25;100994.69;;;5.15;100.00
50550;BME280;36505;52.512;13.460;2023-12-14T11:24:22;100991.38;;;5.20;99.82
50550;BME280;36505;52.512;13.460;2023-12-14T11:26:51;100988.66;;;5.20;99.78
50550;BME280;36505;52.512;13.460;2023-12-14T11:29:17;101000.56;;;5.19;98.14
50550;BME280;36505;52.512;13.460;2023-12-14T11:31:43;100999.50;;;5.20;98.75
50550;BME280;36505;52.512;13.460;2023-12-14T11:34:08;101007.47;;;5.22;99.24
50550;BME280;36505;52.512;13.460;2023-12-14T11:36:34;101009.53;;;5.20;99.86
50550;BME280;36505;52.512;13.460;2023-12-14T11:39:00;101010.81;;;5.24;99.87
50550;BME280;36505;52.512;13.460;2023-12-14T11:41:26;101011.44;;;5.26;100.00
50550;BME280;36505;52.512;13.460;2023-12-14T11:43:52;101021.47;;;5.25;98.12
50550;BME280;36505;52.512;13.460;2023-12-14T11:46:18;101027.72;;;5.26;98.25
50550;BME280;36505;52.512;13.460;2023-12-14T11:48:44;101028.78;;;5.25;98.67
50550;BME280;36505;52.512;13.460;2023-12-14T11:51:11;101026.06;;;5.25;98.72
50550;BME280;36505;52.512;13.460;2023-12-14T11:53:36;101026.06;;;5.25;98.59
50550;BME280;36505;52.512;13.460;2023-12-14T11:56:05;101030.84;;;5.23;97.69
50550;BME280;36505;52.512;13.460;2023-12-14T11:58:33;101045.91;;;5.25;98.20
50550;BME280;36505;52.512;13.460;2023-12-14T12:01:16;101046.97;;;5.24;98.22
50550;BME280;36505;52.512;13.460;2023-12-14T12:03:42;101054.88;;;5.26;98.92
50550;BME280;36505;52.512;13.460;2023-12-14T12:06:24;101051.75;;;5.29;99.20
50550;BME280;36505;52.512;13.460;2023-12-14T12:08:50;101057.41;;;5.27;97.03
50550;BME280;36505;52.512;13.460;2023-12-14T12:11:21;101059.06;;;5.28;97.98
50550;BME280;36505;52.512;13.460;2023-12-14T12:13:56;101063.47;;;5.29;98.25
50550;BME280;36505;52.512;13.460;2023-12-14T12:16:22;101060.56;;;5.31;99.08
50550;BME280;36505;52.512;13.460;2023-12-14T12:18:47;101067.25;;;5.35;99.77
50550;BME280;36505;52.512;13.460;2023-12-14T12:21:13;101071.63;;;5.36;99.46
50550;BME280;36505;52.512;13.460;2023-12-14T12:23:39;101070.59;;;5.37;99.36
50550;BME280;36505;52.512;13.460;2023-12-14T12:26:05;101070.19;;;5.40;99.93
50550;BME280;36505;52.512;13.460;2023-12-14T12:28:31;101068.31;;;5.40;100.00
50550;BME280;36505;52.512;13.460;2023-12-14T12:30:57;101076.91;;;5.44;100.00
50550;BME280;36505;52.512;13.460;2023-12-14T12:33:23;101079.00;;;5.48;100.00
50550;BME280;36505;52.512;13.460;2023-12-14T12:35:48;101089.47;;;5.51;100.00
50550;BME280;36505;52.512;13.460;2023-12-14T12:38:14;101086.53;;;5.53;99.59
50550;BME280;36505;52.512;13.460;2023-12-14T12:40:41;101088.44;;;5.52;98.73
50550;BME280;36505;52.512;13.460;2023-12-14T12:43:07;101102.81;;;5.53;98.67